sensor_id;sensor_type;location;lat;lon;timestamp;temperature;humidity
10802;DHT22;5453;50.852;7.102;2023-05-13T00:01:33;14.90;99.90
10802;DHT22;5453;50.852;7.102;2023-05-13T00:04:08;14.80;99.90
10802;DHT22;5453;50.852;7.102;2023-05-13T00:06:40;14.80;99.90
10802;DHT22;5453;50.852;7.102;2023-05-13T00:09:12;14.80;99.90
10802;DHT22;5453;50.852;7.102;2023-05-13T00:11:46;14.80;99.90
10802;DHT22;5453;50.852;7.102;2023-05-13T00:14:18;14.70;99.90
10802;DHT22;5453;50.852;7.102;2023-05-13T00:16:51;14.70;99.90
10802;DHT22;5453;50.852;7.102;2023-05-13T00:19:23;14.70;99.90
10802;DHT22;5453;50.852;7.102;2023-05-13T00:21:55;14.60;99.90
10802;DHT22;5453;50.852;7.102;2023-05-13T00:24:27;14.60;99.90
10802;DHT22;5453;50.852;7.102;2023-05-13T00:27:01;14.60;99.90
10802;DHT22;5453;50.852;7.102;2023-05-13T00:29:33;14.60;99.90
10802;DHT22;5453;50.852;7.102;2023-05-13T00:32:05;14.60;99.90
10802;DHT22;5453;50.852;7.102;2023-05-13T00:34:39;14.60;99.90
10802;DHT22;5453;50.852;7.102;2023-05-13T00:37:14;14.60;99.90
10802;DHT22;5453;50.852;7.102;2023-05-13T00:39:46;14.60;99.90
10802;DHT22;5453;50.852;7.102;2023-05-13T00:42:20;14.60;99.90
10802;DHT22;5453;50.852;7.102;2023-05-13T00:44:52;14.50;99.90
10802;DHT22;5453;50.852;7.102;2023-05-13T00:47:24;14.50;99.90
10802;DHT22;5453;50.852;7.102;2023-05-13T00:49:56;14.60;99.90
10802;DHT22;5453;50.852;7.102;2023-05-13T00:52:28;14.50;99.90
10802;DHT22;5453;50.852;7.102;2023-05-13T00:55:02;14.50;99.90
10802;DHT22;5453;50.852;7.102;2023-05-13T00:57:37;14.50;99.90
10802;DHT22;5453;50.852;7.102;2023-05-13T01:00:11;14.50;99.90
10802;DHT22;5453;50.852;7.102;2023-05-13T01:02:49;14.50;99.90
10802;DHT22;5453;50.852;7.102;2023-05-13T01:05:25;14.50;99.90
10802;DHT22;5453;50.852;7.102;2023-05-13T01:08:12;14.50;99.90
10802;DHT22;5453;50.852;7.102;2023-05-13T01:10:50;14.40;99.90
10802;DHT22;5453;50.852;7.102;2023-05-13T01:13:32;14.40;99.90
10802;DHT22;5453;50.852;7.102;2023-05-13T01:16:14;14.40;99.90
10802;DHT22;5453;50.852;7.102;2023-05-13T01:18:53;14.40;99.90
10802;DHT22;5453;50.852;7.102;2023-05-13T01:21:34;14.40;99.90
10802;DHT22;5453;50.852;7.102;2023-05-13T01:24:07;14.30;99.90
10802;DHT22;5453;50.852;7.102;2023-05-13T01:26:39;14.30;99.90
10802;DHT22;5453;50.852;7.102;2023-05-13T01:29:11;14.20;99.90
10802;DHT22;5453;50.852;7.102;2023-05-13T01:31:44;14.20;99.90
10802;DHT22;5453;50.852;7.102;2023-05-13T01:34:18;14.10;99.90
10802;DHT22;5453;50.852;7.102;2023-05-13T01:36:52;14.10;99.90
10802;DHT22;5453;50.852;7.102;2023-05-13T01:39:27;14.00;99.90
10802;DHT22;5453;50.852;7.102;2023-05-13T01:42:03;14.00;99.90
10802;DHT22;5453;50.852;7.102;2023-05-13T01:44:35;13.90;99.90
10802;DHT22;5453;50.852;7.102;2023-05-13T01:47:08;13.90;99.90
10802;DHT22;5453;50.852;7.102;2023-05-13T01:49:40;13.80;99.90
10802;DHT22;5453;50.852;7.102;2023-05-13T01:52:14;13.80;99.90
10802;DHT22;5453;50.852;7.102;2023-05-13T01:54:46;13.80;99.90
10802;DHT22;5453;50.852;7.102;2023-05-13T01:57:19;13.80;99.90
10802;DHT22;5453;50.852;7.102;2023-05-13T01:59:51;13.70;99.90
10802;DHT22;5453;50.852;7.102;2023-05-13T02:02:23;13.70;99.90
10802;DHT22;5453;50.852;7.102;2023-05-13T02:04:55;13.70;99.90
10802;DHT22;5453;50.852;7.102;2023-05-13T02:07:29;13.70;99.90
10802;DHT22;5453;50.852;7.102;2023-05-13T02:10:01;13.70;99.90
10802;DHT22;5453;50.852;7.102;2023-05-13T02:12:33;13.70;99.90
10802;DHT22;5453;50.852;7.102;2023-05-13T02:15:05;13.70;99.90
10802;DHT22;5453;50.852;7.102;2023-05-13T02:17:38;13.70;99.90
10802;DHT22;5453;50.852;7.102;2023-05-13T02:20:11;13.70;99.90
10802;DHT22;5453;50.852;7.102;2023-05-13T02:22:46;13.70;99.90
10802;DHT22;5453;50.852;7.102;2023-05-13T02:25:18;13.60;99.90
10802;DHT22;5453;50.852;7.102;2023-05-13T02:27:50;13.60;99.90
10802;DHT22;5453;50.852;7.102;2023-05-13T02:30:22;13.70;99.90
10802;DHT22;5453;50.852;7.102;2023-05-13T02:32:56;13.70;99.90
10802;DHT22;5453;50.852;7.102;2023-05-13T02:35:29;13.70;99.90
10802;DHT22;5453;50.852;7.102;2023-05-13T02:38:04;13.70;99.90
10802;DHT22;5453;50.852;7.102;2023-05-13T02:40:38;13.60;99.90
10802;DHT22;5453;50.852;7.102;2023-05-13T02:43:10;13.60;99.90
10802;DHT22;5453;50.852;7.102;2023-05-13T02:45:51;13.60;99.90
10802;DHT22;5453;50.852;7.102;2023-05-13T02:48:23;13.50;99.90
10802;DHT22;5453;50.852;7.102;2023-05-13T02:50:55;13.50;99.90
10802;DHT22;5453;50.852;7.102;2023-05-13T02:53:28;13.40;99.90
10802;DHT22;5453;50.852;7.102;2023-05-13T02:56:05;13.40;99.90
10802;DHT22;5453;50.852;7.102;2023-05-13T02:58:39;13.30;99.90
10802;DHT22;5453;50.852;7.102;2023-05-13T03:01:11;13.30;99.90
10802;DHT22;5453;50.852;7.102;2023-05-13T03:03:43;13.30;99.90
10802;DHT22;5453;50.852;7.102;2023-05-13T03:06:15;13.30;99.90
10802;DHT22;5453;50.852;7.102;2023-05-13T03:08:49;13.40;99.90
10802;DHT22;5453;50.852;7.102;2023-05-13T03:11:21;13.30;99.90
10802;DHT22;5453;50.852;7.102;2023-05-13T03:13:53;13.30;99.90
10802;DHT22;5453;50.852;7.102;2023-05-13T03:16:25;13.30;99.90
10802;DHT22;5453;50.852;7.102;2023-05-13T03:18:57;13.20;99.90
10802;DHT22;5453;50.852;7.102;2023-05-13T03:21:30;13.20;99.90
10802;DHT22;5453;50.852;7.102;2023-05-13T03:24:05;13.20;99.90
10802;DHT22;5453;50.852;7.102;2023-05-13T03:26:37;13.10;99.90
10802;DHT22;5453;50.852;7.102;2023-05-13T03:29:10;13.10;99.90
10802;DHT22;5453;50.852;7.102;2023-05-13T03:31:42;13.10;99.90
10802;DHT22;5453;50.852;7.102;2023-05-13T03:34:14;13.10;99.90
10802;DHT22;5453;50.852;7.102;2023-05-13T03:36:46;13.00;99.90
10802;DHT22;5453;50.852;7.102;2023-05-13T03:39:20;13.00;99.90
10802;DHT22;5453;50.852;7.102;2023-05-13T03:41:52;12.90;99.90
10802;DHT22;5453;50.852;7.102;2023-05-13T03:44:24;12.90;99.90
10802;DHT22;5453;50.852;7.102;2023-05-13T03:46:56;12.90;99.90
10802;DHT22;5453;50.852;7.102;2023-05-13T03:49:29;12.80;99.90
10802;DHT22;5453;50.852;7.102;2023-05-13T03:52:03;12.80;99.90
10802;DHT22;5453;50.852;7.102;2023-05-13T03:54:39;12.70;99.90
10802;DHT22;5453;50.852;7.102;2023-05-13T03:57:11;12.70;99.90
10802;DHT22;5453;50.852;7.102;2023-05-13T03:59:43;12.70;99.90
10802;DHT22;5453;50.852;7.102;2023-05-13T04:02:16;12.60;99.90
10802;DHT22;5453;50.852;7.102;2023-05-13T04:04:51;12.60;99.90
10802;DHT22;5453;50.852;7.102;2023-05-13T04:07:23;12.60;99.90
10802;DHT22;5453;50.852;7.102;2023-05-13T04:09:57;12.50;99.90
10802;DHT22;5453;50.852;7.102;2023-05-13T04:12:30;12.50;99.90
10802;DHT22;5453;50.852;7.102;2023-05-13T04:15:05;12.50;99.90
10802;DHT22;5453;50.852;7.102;2023-05-13T04:17:38;12.50;99.90
10802;DHT22;5453;50.852;7.102;2023-05-13T04:20:11;12.40;99.90
10802;DHT22;5453;50.852;7.102;2023-05-13T04:22:43;12.40;99.90
10802;DHT22;5453;50.852;7.102;2023-05-13T04:25:20;12.30;99.90
10802;DHT22;5453;50.852;7.102;2023-05-13T04:27:52;12.40;99.90
10802;DHT22;5453;50.852;7.102;2023-05-13T04:30:35;12.40;99.90
10802;DHT22;5453;50.852;7.102;2023-05-13T04:33:08;12.40;99.90
10802;DHT22;5453;50.852;7.102;2023-05-13T04:35:43;12.40;99.90
10802;DHT22;5453;50.852;7.102;2023-05-13T04:38:16;12.40;99.90
10802;DHT22;5453;50.852;7.102;2023-05-13T04:40:51;12.40;99.90
10802;DHT22;5453;50.852;7.102;2023-05-13T04:43:33;12.50;99.90
10802;DHT22;5453;50.852;7.102;2023-05-13T04:46:07;12.50;99.90
10802;DHT22;5453;50.852;7.102;2023-05-13T04:48:40;12.60;99.90
10802;DHT22;5453;50.852;7.102;2023-05-13T04:51:14;12.70;99.90
10802;DHT22;5453;50.852;7.102;2023-05-13T04:53:46;12.80;99.90
10802;DHT22;5453;50.852;7.102;2023-05-13T04:56:21;12.90;99.90
10802;DHT22;5453;50.852;7.102;2023-05-13T04:58:54;13.10;99.90
10802;DHT22;5453;50.852;7.102;2023-05-13T05:01:26;13.30;99.90
10802;DHT22;5453;50.852;7.102;2023-05-13T05:03:59;13.40;99.90
10802;DHT22;5453;50.852;7.102;2023-05-13T05:06:32;13.60;99.90
10802;DHT22;5453;50.852;7.102;2023-05-13T05:12:23;14.00;99.90
10802;DHT22;5453;50.852;7.102;2023-05-13T05:14:55;14.30;99.90
10802;DHT22;5453;50.852;7.102;2023-05-13T05:17:27;14.50;99.90
10802;DHT22;5453;50.852;7.102;2023-05-13T05:20:04;14.80;99.90
10802;DHT22;5453;50.852;7.102;2023-05-13T05:22:37;15.00;99.90
10802;DHT22;5453;50.852;7.102;2023-05-13T05:25:12;15.20;99.90
10802;DHT22;5453;50.852;7.102;2023-05-13T05:27:46;15.40;99.90
10802;DHT22;5453;50.852;7.102;2023-05-13T05:30:19;15.60;99.90
10802;DHT22;5453;50.852;7.102;2023-05-13T05:32:59;15.80;99.90
10802;DHT22;5453;50.852;7.102;2023-05-13T05:35:33;16.10;99.90
10802;DHT22;5453;50.852;7.102;2023-05-13T05:38:07;16.30;99.90
10802;DHT22;5453;50.852;7.102;2023-05-13T05:40:41;16.40;99.90
10802;DHT22;5453;50.852;7.102;2023-05-13T05:43:17;16.50;99.90
10802;DHT22;5453;50.852;7.102;2023-05-13T05:45:49;16.70;99.90
10802;DHT22;5453;50.852;7.102;2023-05-13T05:48:22;16.90;99.90
10802;DHT22;5453;50.852;7.102;2023-05-13T05:50:54;17.00;99.90
10802;DHT22;5453;50.852;7.102;2023-05-13T05:53:31;17.30;99.90
10802;DHT22;5453;50.852;7.102;2023-05-13T05:56:06;17.50;99.90
10802;DHT22;5453;50.852;7.102;2023-05-13T05:58:39;17.60;99.90
10802;DHT22;5453;50.852;7.102;2023-05-13T06:01:12;17.70;99.90
10802;DHT22;5453;50.852;7.102;2023-05-13T06:03:44;17.90;99.90
10802;DHT22;5453;50.852;7.102;2023-05-13T06:06:16;17.90;99.90
10802;DHT22;5453;50.852;7.102;2023-05-13T06:08:48;18.00;99.90
10802;DHT22;5453;50.852;7.102;2023-05-13T06:11:20;18.00;99.90
10802;DHT22;5453;50.852;7.102;2023-05-13T06:13:54;18.10;99.90
10802;DHT22;5453;50.852;7.102;2023-05-13T06:16:27;18.20;99.90
10802;DHT22;5453;50.852;7.102;2023-05-13T06:18:59;18.40;99.90
10802;DHT22;5453;50.852;7.102;2023-05-13T06:21:31;18.50;99.90
10802;DHT22;5453;50.852;7.102;2023-05-13T06:24:04;18.60;99.90
10802;DHT22;5453;50.852;7.102;2023-05-13T06:26:36;18.80;99.90
10802;DHT22;5453;50.852;7.102;2023-05-13T06:29:11;18.90;99.90
10802;DHT22;5453;50.852;7.102;2023-05-13T06:31:43;19.00;99.90
10802;DHT22;5453;50.852;7.102;2023-05-13T06:34:15;19.00;99.90
10802;DHT22;5453;50.852;7.102;2023-05-13T06:36:47;19.10;99.90
10802;DHT22;5453;50.852;7.102;2023-05-13T06:39:19;19.20;99.90
10802;DHT22;5453;50.852;7.102;2023-05-13T06:41:52;19.30;99.90
10802;DHT22;5453;50.852;7.102;2023-05-13T06:44:28;19.30;99.90
10802;DHT22;5453;50.852;7.102;2023-05-13T06:47:01;19.40;99.90
10802;DHT22;5453;50.852;7.102;2023-05-13T06:49:35;19.60;99.90
10802;DHT22;5453;50.852;7.102;2023-05-13T06:52:07;19.70;99.90
10802;DHT22;5453;50.852;7.102;2023-05-13T06:54:40;19.90;99.90
10802;DHT22;5453;50.852;7.102;2023-05-13T06:57:12;20.00;99.90
10802;DHT22;5453;50.852;7.102;2023-05-13T06:59:45;20.10;99.90
10802;DHT22;5453;50.852;7.102;2023-05-13T07:02:17;20.30;99.90
10802;DHT22;5453;50.852;7.102;2023-05-13T07:04:49;20.30;99.90
10802;DHT22;5453;50.852;7.102;2023-05-13T07:07:21;20.50;99.90
10802;DHT22;5453;50.852;7.102;2023-05-13T07:09:53;20.60;99.90
10802;DHT22;5453;50.852;7.102;2023-05-13T07:12:26;20.60;99.90
10802;DHT22;5453;50.852;7.102;2023-05-13T07:14:59;20.50;99.90
10802;DHT22;5453;50.852;7.102;2023-05-13T07:17:31;20.50;99.90
10802;DHT22;5453;50.852;7.102;2023-05-13T07:20:04;20.40;99.90
10802;DHT22;5453;50.852;7.102;2023-05-13T07:22:37;20.50;99.90
10802;DHT22;5453;50.852;7.102;2023-05-13T07:25:09;20.60;99.90
10802;DHT22;5453;50.852;7.102;2023-05-13T07:27:42;20.70;99.90
10802;DHT22;5453;50.852;7.102;2023-05-13T07:30:15;20.80;99.90
10802;DHT22;5453;50.852;7.102;2023-05-13T07:32:47;21.00;99.90
10802;DHT22;5453;50.852;7.102;2023-05-13T07:35:19;21.10;99.90
10802;DHT22;5453;50.852;7.102;2023-05-13T07:37:52;21.00;99.90
10802;DHT22;5453;50.852;7.102;2023-05-13T07:40:24;21.00;99.90
10802;DHT22;5453;50.852;7.102;2023-05-13T07:42:56;20.90;99.90
10802;DHT22;5453;50.852;7.102;2023-05-13T07:45:29;20.80;99.90
10802;DHT22;5453;50.852;7.102;2023-05-13T07:48:01;20.60;99.90
10802;DHT22;5453;50.852;7.102;2023-05-13T07:50:33;20.50;99.90
10802;DHT22;5453;50.852;7.102;2023-05-13T07:53:06;20.40;99.90
10802;DHT22;5453;50.852;7.102;2023-05-13T07:55:38;20.30;99.90
10802;DHT22;5453;50.852;7.102;2023-05-13T07:58:11;20.30;99.90
10802;DHT22;5453;50.852;7.102;2023-05-13T08:00:44;20.50;99.90
10802;DHT22;5453;50.852;7.102;2023-05-13T08:03:16;20.70;99.90
10802;DHT22;5453;50.852;7.102;2023-05-13T08:05:48;21.10;99.90
10802;DHT22;5453;50.852;7.102;2023-05-13T08:08:21;21.40;99.90
10802;DHT22;5453;50.852;7.102;2023-05-13T08:10:53;21.60;99.90
10802;DHT22;5453;50.852;7.102;2023-05-13T08:13:25;21.90;99.20
10802;DHT22;5453;50.852;7.102;2023-05-13T08:16:00;22.30;97.40
10802;DHT22;5453;50.852;7.102;2023-05-13T08:18:32;22.50;96.50
10802;DHT22;5453;50.852;7.102;2023-05-13T08:21:04;22.80;96.20
10802;DHT22;5453;50.852;7.102;2023-05-13T08:23:37;23.30;94.80
10802;DHT22;5453;50.852;7.102;2023-05-13T08:26:09;23.60;93.40
10802;DHT22;5453;50.852;7.102;2023-05-13T08:28:41;24.00;91.70
10802;DHT22;5453;50.852;7.102;2023-05-13T08:31:14;24.50;90.30
10802;DHT22;5453;50.852;7.102;2023-05-13T08:33:46;24.90;86.80
10802;DHT22;5453;50.852;7.102;2023-05-13T08:36:19;25.50;85.40
10802;DHT22;5453;50.852;7.102;2023-05-13T08:38:52;26.30;85.00
10802;DHT22;5453;50.852;7.102;2023-05-13T08:41:25;27.10;82.60
10802;DHT22;5453;50.852;7.102;2023-05-13T08:43:57;28.00;79.00
10802;DHT22;5453;50.852;7.102;2023-05-13T08:46:32;28.70;75.50
10802;DHT22;5453;50.852;7.102;2023-05-13T08:49:05;29.10;72.40
10802;DHT22;5453;50.852;7.102;2023-05-13T08:51:37;29.60;69.50
10802;DHT22;5453;50.852;7.102;2023-05-13T08:54:10;29.90;66.90
10802;DHT22;5453;50.852;7.102;2023-05-13T08:56:42;30.10;65.00
10802;DHT22;5453;50.852;7.102;2023-05-13T08:59:14;30.20;63.50
10802;DHT22;5453;50.852;7.102;2023-05-13T09:01:49;30.50;64.70
10802;DHT22;5453;50.852;7.102;2023-05-13T09:04:21;30.80;64.10
10802;DHT22;5453;50.852;7.102;2023-05-13T09:06:54;31.00;63.30
10802;DHT22;5453;50.852;7.102;2023-05-13T09:09:27;30.60;62.50
10802;DHT22;5453;50.852;7.102;2023-05-13T09:11:59;30.10;63.60
10802;DHT22;5453;50.852;7.102;2023-05-13T09:14:31;29.80;64.00
10802;DHT22;5453;50.852;7.102;2023-05-13T09:17:05;29.80;66.00
10802;DHT22;5453;50.852;7.102;2023-05-13T09:19:37;29.70;67.10
10802;DHT22;5453;50.852;7.102;2023-05-13T09:22:16;29.70;67.10
10802;DHT22;5453;50.852;7.102;2023-05-13T09:24:52;29.60;66.90
10802;DHT22;5453;50.852;7.102;2023-05-13T09:27:35;29.40;66.50
10802;DHT22;5453;50.852;7.102;2023-05-13T09:30:09;28.90;67.00
10802;DHT22;5453;50.852;7.102;2023-05-13T09:32:43;28.40;67.10
10802;DHT22;5453;50.852;7.102;2023-05-13T09:35:15;27.70;68.10
10802;DHT22;5453;50.852;7.102;2023-05-13T09:37:48;27.30;70.30
10802;DHT22;5453;50.852;7.102;2023-05-13T09:40:20;26.90;70.90
10802;DHT22;5453;50.852;7.102;2023-05-13T09:42:56;26.60;72.00
10802;DHT22;5453;50.852;7.102;2023-05-13T09:45:29;26.40;73.50
10802;DHT22;5453;50.852;7.102;2023-05-13T09:48:03;26.40;73.70
10802;DHT22;5453;50.852;7.102;2023-05-13T09:50:45;26.30;74.50
10802;DHT22;5453;50.852;7.102;2023-05-13T09:53:19;26.30;74.30
10802;DHT22;5453;50.852;7.102;2023-05-13T09:55:53;26.20;74.70
10802;DHT22;5453;50.852;7.102;2023-05-13T09:58:26;26.10;75.30
10802;DHT22;5453;50.852;7.102;2023-05-13T10:01:00;26.00;75.20
10802;DHT22;5453;50.852;7.102;2023-05-13T10:03:34;26.00;75.50
10802;DHT22;5453;50.852;7.102;2023-05-13T10:06:06;25.90;75.40
10802;DHT22;5453;50.852;7.102;2023-05-13T10:08:38;25.70;75.10
10802;DHT22;5453;50.852;7.102;2023-05-13T10:11:11;25.40;75.70
10802;DHT22;5453;50.852;7.102;2023-05-13T10:13:48;25.10;75.70
10802;DHT22;5453;50.852;7.102;2023-05-13T10:16:22;24.70;76.40
10802;DHT22;5453;50.852;7.102;2023-05-13T10:18:57;24.30;77.30
10802;DHT22;5453;50.852;7.102;2023-05-13T10:21:29;23.90;78.50
10802;DHT22;5453;50.852;7.102;2023-05-13T10:24:03;23.60;80.20
10802;DHT22;5453;50.852;7.102;2023-05-13T10:26:35;23.20;79.90
10802;DHT22;5453;50.852;7.102;2023-05-13T10:29:09;22.80;80.10
10802;DHT22;5453;50.852;7.102;2023-05-13T10:31:42;22.40;82.50
10802;DHT22;5453;50.852;7.102;2023-05-13T10:34:16;22.00;84.40
10802;DHT22;5453;50.852;7.102;2023-05-13T10:37:03;21.50;81.30
10802;DHT22;5453;50.852;7.102;2023-05-13T10:40:05;21.10;84.20
10802;DHT22;5453;50.852;7.102;2023-05-13T10:42:53;20.80;89.20
10802;DHT22;5453;50.852;7.102;2023-05-13T10:45:27;20.50;91.50
10802;DHT22;5453;50.852;7.102;2023-05-13T10:48:05;20.30;93.90
10802;DHT22;5453;50.852;7.102;2023-05-13T10:50:39;20.10;95.80
10802;DHT22;5453;50.852;7.102;2023-05-13T10:53:23;19.90;98.10
10802;DHT22;5453;50.852;7.102;2023-05-13T10:55:57;19.80;99.90
10802;DHT22;5453;50.852;7.102;2023-05-13T10:58:31;19.70;99.90
10802;DHT22;5453;50.852;7.102;2023-05-13T11:01:14;19.60;99.90
10802;DHT22;5453;50.852;7.102;2023-05-13T11:03:52;19.50;99.90
10802;DHT22;5453;50.852;7.102;2023-05-13T11:06:32;19.40;99.90
10802;DHT22;5453;50.852;7.102;2023-05-13T11:09:06;19.20;99.90
10802;DHT22;5453;50.852;7.102;2023-05-13T11:11:39;19.10;99.90
10802;DHT22;5453;50.852;7.102;2023-05-13T11:14:15;18.90;99.90
10802;DHT22;5453;50.852;7.102;2023-05-13T11:16:51;18.80;99.90
10802;DHT22;5453;50.852;7.102;2023-05-13T11:19:25;18.70;99.90
10802;DHT22;5453;50.852;7.102;2023-05-13T11:22:07;18.50;99.90
10802;DHT22;5453;50.852;7.102;2023-05-13T11:24:44;18.30;99.90
10802;DHT22;5453;50.852;7.102;2023-05-13T11:27:26;18.10;99.90
10802;DHT22;5453;50.852;7.102;2023-05-13T11:29:58;17.80;99.90
10802;DHT22;5453;50.852;7.102;2023-05-13T11:32:52;17.70;99.90
10802;DHT22;5453;50.852;7.102;2023-05-13T11:35:26;17.70;99.90
10802;DHT22;5453;50.852;7.102;2023-05-13T11:38:02;17.70;99.90
10802;DHT22;5453;50.852;7.102;2023-05-13T11:40:35;17.80;99.90
10802;DHT22;5453;50.852;7.102;2023-05-13T11:43:08;17.90;99.90
10802;DHT22;5453;50.852;7.102;2023-05-13T11:45:41;18.10;99.90
10802;DHT22;5453;50.852;7.102;2023-05-13T11:48:19;18.30;99.90
10802;DHT22;5453;50.852;7.102;2023-05-13T11:50:51;18.40;99.90
10802;DHT22;5453;50.852;7.102;2023-05-13T11:53:29;18.50;99.90
10802;DHT22;5453;50.852;7.102;2023-05-13T11:56:07;18.60;99.90
10802;DHT22;5453;50.852;7.102;2023-05-13T11:58:40;18.70;99.90
10802;DHT22;5453;50.852;7.102;2023-05-13T12:01:15;18.90;99.90
10802;DHT22;5453;50.852;7.102;2023-05-13T12:03:47;19.10;99.90
10802;DHT22;5453;50.852;7.102;2023-05-13T12:06:19;19.30;99.90
10802;DHT22;5453;50.852;7.102;2023-05-13T12:08:53;19.50;99.90
10802;DHT22;5453;50.852;7.102;2023-05-13T12:11:25;19.60;99.90
10802;DHT22;5453;50.852;7.102;2023-05-13T12:13:57;19.80;99.90
10802;DHT22;5453;50.852;7.102;2023-05-13T12:16:30;19.90;99.90
10802;DHT22;5453;50.852;7.102;2023-05-13T12:19:05;20.00;99.90
10802;DHT22;5453;50.852;7.102;2023-05-13T12:21:37;20.10;99.90
10802;DHT22;5453;50.852;7.102;2023-05-13T12:24:18;20.20;99.90
10802;DHT22;5453;50.852;7.102;2023-05-13T12:26:50;20.20;99.90
10802;DHT22;5453;50.852;7.102;2023-05-13T12:29:24;20.20;99.90
10802;DHT22;5453;50.852;7.102;2023-05-13T12:32:04;20.20;99.90
10802;DHT22;5453;50.852;7.102;2023-05-13T12:34:36;20.30;99.90
10802;DHT22;5453;50.852;7.102;2023-05-13T12:37:10;20.30;99.90
10802;DHT22;5453;50.852;7.102;2023-05-13T12:39:44;20.40;99.90
10802;DHT22;5453;50.852;7.102;2023-05-13T12:42:17;20.40;99.90
10802;DHT22;5453;50.852;7.102;2023-05-13T12:44:49;20.40;99.90
10802;DHT22;5453;50.852;7.102;2023-05-13T12:47:21;20.40;99.90
10802;DHT22;5453;50.852;7.102;2023-05-13T12:49:54;20.40;99.90
10802;DHT22;5453;50.852;7.102;2023-05-13T12:52:28;20.40;99.90
10802;DHT22;5453;50.852;7.102;2023-05-13T12:55:01;20.50;99.90
10802;DHT22;5453;50.852;7.102;2023-05-13T12:57:34;20.60;99.90
10802;DHT22;5453;50.852;7.102;2023-05-13T13:00:07;20.70;99.90
10802;DHT22;5453;50.852;7.102;2023-05-13T13:02:40;20.90;99.90
10802;DHT22;5453;50.852;7.102;2023-05-13T13:05:12;21.00;99.30
10802;DHT22;5453;50.852;7.102;2023-05-13T13:07:44;21.20;97.80
10802;DHT22;5453;50.852;7.102;2023-05-13T13:10:18;21.40;97.70
10802;DHT22;5453;50.852;7.102;2023-05-13T13:12:50;21.40;97.00
10802;DHT22;5453;50.852;7.102;2023-05-13T13:15:22;21.40;96.40
10802;DHT22;5453;50.852;7.102;2023-05-13T13:17:54;21.20;96.00
10802;DHT22;5453;50.852;7.102;2023-05-13T13:20:26;21.10;95.50
10802;DHT22;5453;50.852;7.102;2023-05-13T13:22:58;20.90;95.40
10802;DHT22;5453;50.852;7.102;2023-05-13T13:25:32;20.80;96.40
10802;DHT22;5453;50.852;7.102;2023-05-13T13:28:04;20.70;97.00
10802;DHT22;5453;50.852;7.102;2023-05-13T13:30:37;20.50;97.40
10802;DHT22;5453;50.852;7.102;2023-05-13T13:33:15;20.50;98.00
10802;DHT22;5453;50.852;7.102;2023-05-13T13:35:48;20.40;98.80
10802;DHT22;5453;50.852;7.102;2023-05-13T13:38:20;20.30;99.40
10802;DHT22;5453;50.852;7.102;2023-05-13T13:40:54;20.20;99.90
10802;DHT22;5453;50.852;7.102;2023-05-13T13:43:26;20.20;99.90
10802;DHT22;5453;50.852;7.102;2023-05-13T13:45:58;20.20;99.90
10802;DHT22;5453;50.852;7.102;2023-05-13T13:48:30;20.20;99.90
10802;DHT22;5453;50.852;7.102;2023-05-13T13:51:02;20.20;99.90
10802;DHT22;5453;50.852;7.102;2023-05-13T13:53:34;20.20;99.90
10802;DHT22;5453;50.852;7.102;2023-05-13T13:56:08;20.10;99.90
10802;DHT22;5453;50.852;7.102;2023-05-13T13:58:40;20.10;99.90
10802;DHT22;5453;50.852;7.102;2023-05-13T14:01:12;20.00;99.90
10802;DHT22;5453;50.852;7.102;2023-05-13T14:03:47;19.90;99.90
10802;DHT22;5453;50.852;7.102;2023-05-13T14:06:20;19.80;99.90
10802;DHT22;5453;50.852;7.102;2023-05-13T14:08:52;19.70;99.90
10802;DHT22;5453;50.852;7.102;2023-05-13T14:11:25;19.50;99.90
10802;DHT22;5453;50.852;7.102;2023-05-13T14:13:58;19.30;99.90
10802;DHT22;5453;50.852;7.102;2023-05-13T14:16:30;19.20;99.90
10802;DHT22;5453;50.852;7.102;2023-05-13T14:19:02;19.10;99.90
10802;DHT22;5453;50.852;7.102;2023-05-13T14:21:34;19.00;99.90
10802;DHT22;5453;50.852;7.102;2023-05-13T14:24:06;18.80;99.90
10802;DHT22;5453;50.852;7.102;2023-05-13T14:26:42;18.70;99.90
10802;DHT22;5453;50.852;7.102;2023-05-13T14:29:15;18.50;99.90
10802;DHT22;5453;50.852;7.102;2023-05-13T14:31:47;18.20;99.90
10802;DHT22;5453;50.852;7.102;2023-05-13T14:34:20;17.80;99.90
10802;DHT22;5453;50.852;7.102;2023-05-13T14:36:52;17.30;99.90
10802;DHT22;5453;50.852;7.102;2023-05-13T14:39:24;17.00;99.90
10802;DHT22;5453;50.852;7.102;2023-05-13T14:41:59;16.80;99.90
10802;DHT22;5453;50.852;7.102;2023-05-13T14:44:31;16.80;99.90
10802;DHT22;5453;50.852;7.102;2023-05-13T14:47:03;16.80;99.90
10802;DHT22;5453;50.852;7.102;2023-05-13T14:49:36;16.80;99.90
10802;DHT22;5453;50.852;7.102;2023-05-13T14:52:08;16.80;99.90
10802;DHT22;5453;50.852;7.102;2023-05-13T14:54:40;16.90;99.90
10802;DHT22;5453;50.852;7.102;2023-05-13T14:57:14;17.00;99.90
10802;DHT22;5453;50.852;7.102;2023-05-13T14:59:46;17.00;99.90
10802;DHT22;5453;50.852;7.102;2023-05-13T15:02:18;17.00;99.90
10802;DHT22;5453;50.852;7.102;2023-05-13T15:04:50;17.10;99.90
10802;DHT22;5453;50.852;7.102;2023-05-13T15:07:22;17.10;99.90
10802;DHT22;5453;50.852;7.102;2023-05-13T15:09:54;17.10;99.90
10802;DHT22;5453;50.852;7.102;2023-05-13T15:12:27;17.10;99.90
10802;DHT22;5453;50.852;7.102;2023-05-13T15:15:00;17.00;99.90
10802;DHT22;5453;50.852;7.102;2023-05-13T15:17:32;17.10;99.90
10802;DHT22;5453;50.852;7.102;2023-05-13T15:20:05;17.10;99.90
10802;DHT22;5453;50.852;7.102;2023-05-13T15:22:38;17.20;99.90
10802;DHT22;5453;50.852;7.102;2023-05-13T15:25:10;17.20;99.90
10802;DHT22;5453;50.852;7.102;2023-05-13T15:27:43;17.30;99.90
10802;DHT22;5453;50.852;7.102;2023-05-13T15:30:16;17.30;99.90
10802;DHT22;5453;50.852;7.102;2023-05-13T15:32:48;17.30;99.90
10802;DHT22;5453;50.852;7.102;2023-05-13T15:35:20;17.30;99.90
10802;DHT22;5453;50.852;7.102;2023-05-13T15:37:52;17.30;99.90
10802;DHT22;5453;50.852;7.102;2023-05-13T15:40:24;17.20;99.90
10802;DHT22;5453;50.852;7.102;2023-05-13T15:42:57;17.20;99.90
10802;DHT22;5453;50.852;7.102;2023-05-13T15:45:29;17.10;99.90
10802;DHT22;5453;50.852;7.102;2023-05-13T15:48:02;17.10;99.90
10802;DHT22;5453;50.852;7.102;2023-05-13T15:50:34;17.00;99.90
10802;DHT22;5453;50.852;7.102;2023-05-13T15:53:06;17.00;99.90
10802;DHT22;5453;50.852;7.102;2023-05-13T15:55:38;17.00;99.90
10802;DHT22;5453;50.852;7.102;2023-05-13T15:58:12;17.00;99.90
10802;DHT22;5453;50.852;7.102;2023-05-13T16:00:44;17.00;99.90
10802;DHT22;5453;50.852;7.102;2023-05-13T16:03:16;17.00;99.90
10802;DHT22;5453;50.852;7.102;2023-05-13T16:05:48;17.00;99.90
10802;DHT22;5453;50.852;7.102;2023-05-13T16:08:20;17.00;99.90
10802;DHT22;5453;50.852;7.102;2023-05-13T16:10:53;17.10;99.90
10802;DHT22;5453;50.852;7.102;2023-05-13T16:13:27;17.10;99.90
10802;DHT22;5453;50.852;7.102;2023-05-13T16:15:59;17.10;99.90
10802;DHT22;5453;50.852;7.102;2023-05-13T16:18:31;17.10;99.90
10802;DHT22;5453;50.852;7.102;2023-05-13T16:21:04;17.20;99.90
10802;DHT22;5453;50.852;7.102;2023-05-13T16:23:36;17.20;99.90
10802;DHT22;5453;50.852;7.102;2023-05-13T16:26:08;17.20;99.90
10802;DHT22;5453;50.852;7.102;2023-05-13T16:28:41;17.30;99.90